Terminal Aerodrome Forecast
Issued by NWS

Home | Current Version | Previous Version | Text Only | Print | Product List | Glossary On
Versions: 1 2 3 4 5 6 7 8 9 10 11 12
995
FTUS42 KTBW 122320
TAFRSW
TAF
KRSW 122320Z 1300/1324 29008KT P6SM SCT050
     FM130600 34006KT P6SM SKC
     FM131400 02008KT P6SM SKC
     FM131900 32007KT P6SM SKC=

USA.gov is the U.S. government's official web portal to all federal, state and local government web resources and services.